createdAt,value
2018-08-22T00:01:57.995Z,15.48
2018-08-22T00:04:26.557Z,15.41
2018-08-22T00:06:55.043Z,15.42
2018-08-22T00:09:23.600Z,15.34
2018-08-22T00:11:52.065Z,15.27
2018-08-22T00:14:20.552Z,15.24
2018-08-22T00:16:49.424Z,15.30
2018-08-22T00:19:17.917Z,15.26
2018-08-22T00:21:46.388Z,15.25
2018-08-22T00:24:14.889Z,15.24
2018-08-22T00:26:43.360Z,15.27
2018-08-22T00:29:11.907Z,15.29
2018-08-22T00:31:40.361Z,15.26
2018-08-22T00:34:08.853Z,15.17
2018-08-22T00:36:37.333Z,14.95
2018-08-22T00:39:06.849Z,14.90
2018-08-22T00:41:35.344Z,15.04
2018-08-22T00:44:03.804Z,14.98
2018-08-22T00:46:32.576Z,14.91
2018-08-22T00:49:01.060Z,14.95
2018-08-22T00:51:29.523Z,14.93
2018-08-22T00:53:58.027Z,14.92
2018-08-22T00:56:26.552Z,14.97
2018-08-22T00:58:55.048Z,14.94
2018-08-22T01:01:23.514Z,14.89
2018-08-22T01:03:52.011Z,14.83
2018-08-22T01:06:20.495Z,14.77
2018-08-22T01:08:48.981Z,14.76
2018-08-22T01:11:17.484Z,14.76
2018-08-22T01:13:45.976Z,14.70
2018-08-22T01:16:14.468Z,14.63
2018-08-22T01:18:43.001Z,14.58
2018-08-22T01:21:11.492Z,14.51
2018-08-22T01:23:39.980Z,14.47
2018-08-22T01:26:08.543Z,14.43
2018-08-22T01:28:36.986Z,14.38
2018-08-22T01:31:05.815Z,14.50
2018-08-22T01:33:34.531Z,14.51
2018-08-22T01:36:03.100Z,14.47
2018-08-22T01:38:31.543Z,14.35
2018-08-22T01:41:00.061Z,14.34
2018-08-22T01:43:28.574Z,14.29
2018-08-22T01:45:57.063Z,14.32
2018-08-22T01:48:25.532Z,14.23
2018-08-22T01:50:54.049Z,14.29
2018-08-22T01:53:22.949Z,14.27
2018-08-22T01:55:51.434Z,14.35
2018-08-22T01:58:19.987Z,14.33
2018-08-22T02:00:48.484Z,14.27
2018-08-22T02:03:16.946Z,14.28
2018-08-22T02:05:45.483Z,14.22
2018-08-22T02:08:13.940Z,14.17
2018-08-22T02:10:42.429Z,14.10
2018-08-22T02:13:10.905Z,14.14
2018-08-22T02:15:39.403Z,14.08
2018-08-22T02:18:07.912Z,14.09
2018-08-22T02:20:36.393Z,14.09
2018-08-22T02:23:04.908Z,14.05
2018-08-22T02:25:33.376Z,14.01
2018-08-22T02:28:01.836Z,14.02
2018-08-22T02:30:30.339Z,14.01
2018-08-22T02:32:58.788Z,13.88
2018-08-22T02:35:27.264Z,13.89
2018-08-22T02:37:55.725Z,13.90
2018-08-22T02:40:24.193Z,13.92
2018-08-22T02:42:52.699Z,13.89
2018-08-22T02:45:21.172Z,13.88
2018-08-22T02:47:49.656Z,13.85
2018-08-22T02:50:18.115Z,13.84
2018-08-22T02:52:46.595Z,13.83
2018-08-22T02:55:15.131Z,13.81
2018-08-22T02:57:43.642Z,13.75
2018-08-22T03:00:12.125Z,13.75
2018-08-22T03:02:40.620Z,13.72
2018-08-22T03:05:09.101Z,13.66
2018-08-22T03:07:37.576Z,13.61
2018-08-22T03:10:06.101Z,13.63
2018-08-22T03:12:34.596Z,13.50
2018-08-22T03:15:03.100Z,13.54
2018-08-22T03:17:31.566Z,13.54
2018-08-22T03:20:01.072Z,13.54
2018-08-22T03:22:29.528Z,13.58
2018-08-22T03:24:58.041Z,13.58
2018-08-22T03:27:26.579Z,13.53
2018-08-22T03:29:55.093Z,13.50
2018-08-22T03:32:23.602Z,13.45
2018-08-22T03:34:52.076Z,13.49
2018-08-22T03:37:20.577Z,13.51
2018-08-22T03:39:49.036Z,13.52
2018-08-22T03:42:17.526Z,13.49
2018-08-22T03:44:46.020Z,13.08
2018-08-22T03:47:14.536Z,13.40
2018-08-22T03:49:43.032Z,13.43
2018-08-22T03:52:11.641Z,13.43
2018-08-22T03:54:40.151Z,13.43
2018-08-22T03:57:08.646Z,13.40
2018-08-22T03:59:37.160Z,13.36
2018-08-22T04:02:05.756Z,13.37
2018-08-22T04:04:34.264Z,13.33
2018-08-22T04:07:02.753Z,13.27
2018-08-22T04:09:31.285Z,13.24
2018-08-22T04:11:59.768Z,13.26
2018-08-22T04:14:28.232Z,13.21
2018-08-22T04:16:56.762Z,13.22
2018-08-22T04:19:25.283Z,13.30
2018-08-22T04:21:53.876Z,13.33
2018-08-22T04:24:22.481Z,13.21
2018-08-22T04:26:51.065Z,13.21
2018-08-22T04:29:19.560Z,13.22
2018-08-22T04:31:48.213Z,13.21
2018-08-22T04:34:16.795Z,13.29
2018-08-22T04:36:45.284Z,13.44
2018-08-22T04:39:13.792Z,13.39
2018-08-22T04:41:42.322Z,13.36
2018-08-22T04:44:10.799Z,13.45
2018-08-22T04:46:39.258Z,13.60
2018-08-22T04:49:07.804Z,13.68
2018-08-22T04:51:36.279Z,13.77
2018-08-22T04:54:04.802Z,13.76
2018-08-22T04:56:33.334Z,13.80
2018-08-22T04:59:02.997Z,13.86
2018-08-22T05:01:31.548Z,14.08
2018-08-22T05:04:00.188Z,14.12
2018-08-22T05:06:28.704Z,14.15
2018-08-22T05:08:57.175Z,14.23
2018-08-22T05:11:25.696Z,14.26
2018-08-22T05:13:54.165Z,14.35
2018-08-22T05:16:22.644Z,14.46
2018-08-22T05:18:51.128Z,14.53
2018-08-22T05:21:19.604Z,14.64
2018-08-22T05:23:48.096Z,14.72
2018-08-22T05:26:16.562Z,14.84
2018-08-22T05:28:45.468Z,14.96
2018-08-22T05:31:14.097Z,15.01
2018-08-22T05:33:42.615Z,15.12
2018-08-22T05:36:11.242Z,15.21
2018-08-22T05:38:39.873Z,15.37
2018-08-22T05:41:08.507Z,15.34
2018-08-22T05:43:37.105Z,15.51
2018-08-22T05:46:06.004Z,15.59
2018-08-22T05:48:38.965Z,15.64
2018-08-22T05:51:07.650Z,15.73
2018-08-22T05:53:36.197Z,15.74
2018-08-22T05:56:04.687Z,15.88
2018-08-22T05:58:33.214Z,15.93
2018-08-22T06:01:01.708Z,16.00
2018-08-22T06:03:30.259Z,16.07
2018-08-22T06:05:58.794Z,16.14
2018-08-22T06:08:27.415Z,16.16
2018-08-22T06:10:56.177Z,16.18
2018-08-22T06:13:24.702Z,16.28
2018-08-22T06:15:53.213Z,16.39
2018-08-22T06:18:21.861Z,16.46
2018-08-22T06:20:50.382Z,16.45
2018-08-22T06:23:18.940Z,16.53
2018-08-22T06:25:47.509Z,16.67
2018-08-22T06:28:16.070Z,16.69
2018-08-22T06:30:44.696Z,16.80
2018-08-22T06:33:13.280Z,16.90
2018-08-22T06:35:41.800Z,16.97
2018-08-22T06:38:10.319Z,17.05
2018-08-22T06:40:38.873Z,17.30
2018-08-22T06:43:07.421Z,17.39
2018-08-22T06:45:35.937Z,17.45
2018-08-22T06:48:04.460Z,17.60
2018-08-22T06:50:32.973Z,17.73
2018-08-22T06:53:01.521Z,17.78
2018-08-22T06:55:30.020Z,17.86
2018-08-22T06:57:58.578Z,17.92
2018-08-22T07:00:27.111Z,18.06
2018-08-22T07:02:55.625Z,18.18
2018-08-22T07:05:24.187Z,18.31
2018-08-22T07:07:52.719Z,18.39
2018-08-22T07:10:21.221Z,18.48
2018-08-22T07:12:49.767Z,18.59
2018-08-22T07:15:18.280Z,18.76
2018-08-22T07:17:46.782Z,18.87
2018-08-22T07:20:15.662Z,18.94
2018-08-22T07:22:44.148Z,19.08
2018-08-22T07:25:12.670Z,19.22
2018-08-22T07:27:41.210Z,19.41
2018-08-22T07:30:09.748Z,19.45
2018-08-22T07:32:38.698Z,19.54
2018-08-22T07:35:07.209Z,19.57
2018-08-22T07:37:35.685Z,19.66
2018-08-22T07:40:04.645Z,19.80
2018-08-22T07:42:33.176Z,20.03
2018-08-22T07:45:01.690Z,20.11
2018-08-22T07:47:30.208Z,20.24
2018-08-22T07:49:58.752Z,20.30
2018-08-22T07:52:27.232Z,20.43
2018-08-22T07:54:55.687Z,20.62
2018-08-22T07:57:24.302Z,20.76
2018-08-22T07:59:53.612Z,20.86
2018-08-22T08:02:22.119Z,20.99
2018-08-22T08:04:50.592Z,21.12
2018-08-22T08:07:19.128Z,21.18
2018-08-22T08:09:47.685Z,21.23
2018-08-22T08:12:16.272Z,21.39
2018-08-22T08:14:48.088Z,21.42
2018-08-22T08:17:16.705Z,21.57
2018-08-22T08:19:45.123Z,21.69
2018-08-22T08:22:13.613Z,21.81
2018-08-22T08:24:42.132Z,21.97
2018-08-22T08:27:10.625Z,22.09
2018-08-22T08:29:39.145Z,22.15
2018-08-22T08:32:07.706Z,22.19
2018-08-22T08:34:36.200Z,22.25
2018-08-22T08:37:04.683Z,22.33
2018-08-22T08:39:33.167Z,22.43
2018-08-22T08:42:01.684Z,22.48
2018-08-22T08:44:30.493Z,22.60
2018-08-22T08:46:58.984Z,22.67
2018-08-22T08:49:27.550Z,22.77
2018-08-22T08:52:00.505Z,22.88
2018-08-22T08:54:29.592Z,23.06
2018-08-22T08:56:58.257Z,23.11
2018-08-22T08:59:26.837Z,23.23
2018-08-22T09:01:55.383Z,23.24
2018-08-22T09:04:23.897Z,23.38
2018-08-22T09:06:52.391Z,23.50
2018-08-22T09:09:20.885Z,23.56
2018-08-22T09:11:56.252Z,23.45
2018-08-22T09:14:24.816Z,23.52
2018-08-22T09:16:53.465Z,23.66
2018-08-22T09:19:22.049Z,23.79
2018-08-22T09:21:50.537Z,23.87
2018-08-22T09:24:19.063Z,23.98
2018-08-22T09:26:47.553Z,24.04
2018-08-22T09:29:16.040Z,24.13
2018-08-22T09:31:44.540Z,24.20
2018-08-22T09:34:13.025Z,24.27
2018-08-22T09:36:41.524Z,24.38
2018-08-22T09:39:12.963Z,24.42
2018-08-22T09:41:41.611Z,24.45
2018-08-22T09:44:10.069Z,24.45
2018-08-22T09:46:39.405Z,24.51
2018-08-22T09:49:08.014Z,24.63
2018-08-22T09:51:36.701Z,24.70
2018-08-22T09:54:05.261Z,24.90
2018-08-22T09:56:33.752Z,24.97
2018-08-22T09:59:02.588Z,25.01
2018-08-22T10:01:36.411Z,24.92
2018-08-22T10:04:04.936Z,25.16
2018-08-22T10:06:38.868Z,25.23
2018-08-22T10:09:09.180Z,25.31
2018-08-22T10:11:37.640Z,25.47
2018-08-22T10:14:06.207Z,25.69
2018-08-22T10:16:34.693Z,25.73
2018-08-22T10:19:03.247Z,25.58
2018-08-22T10:21:31.842Z,25.66
2018-08-22T10:24:00.325Z,25.79
2018-08-22T10:26:28.888Z,25.91
2018-08-22T10:28:57.310Z,26.09
2018-08-22T10:31:26.425Z,26.23
2018-08-22T10:33:55.520Z,26.32
2018-08-22T10:36:24.057Z,26.48
2018-08-22T10:38:52.592Z,26.60
2018-08-22T10:41:21.120Z,26.84
2018-08-22T10:43:49.586Z,26.83
2018-08-22T10:46:18.118Z,26.98
2018-08-22T10:48:46.596Z,27.03
2018-08-22T10:51:15.217Z,27.07
2018-08-22T10:53:43.728Z,27.20
2018-08-22T10:56:12.196Z,27.55
2018-08-22T10:58:40.760Z,27.71
2018-08-22T11:01:09.256Z,27.81
2018-08-22T11:03:37.759Z,27.75
2018-08-22T11:06:06.544Z,27.99
2018-08-22T11:08:35.072Z,27.95
2018-08-22T11:11:03.576Z,27.99
2018-08-22T11:13:32.096Z,28.04
2018-08-22T11:16:00.616Z,27.84
2018-08-22T11:18:29.461Z,27.93
2018-08-22T11:21:09.088Z,28.02
2018-08-22T11:23:48.941Z,27.85
2018-08-22T11:26:28.764Z,28.08
2018-08-22T11:29:08.522Z,28.30
2018-08-22T11:31:48.007Z,28.38
2018-08-22T11:34:27.913Z,28.57
2018-08-22T11:37:07.328Z,28.51
2018-08-22T11:39:36.460Z,28.69
2018-08-22T11:42:05.380Z,28.71
2018-08-22T11:44:33.865Z,28.88
2018-08-22T11:47:02.525Z,28.69
2018-08-22T11:49:31.651Z,28.47
2018-08-22T11:52:00.440Z,28.59
2018-08-22T11:54:29.665Z,28.88
2018-08-22T11:56:58.166Z,29.07
2018-08-22T11:59:26.744Z,29.21
2018-08-22T12:01:55.244Z,29.43
2018-08-22T12:04:23.749Z,29.53
2018-08-22T12:06:52.660Z,29.65
2018-08-22T12:09:21.127Z,29.66
2018-08-22T12:11:49.640Z,29.50
2018-08-22T12:14:18.142Z,29.44
2018-08-22T12:16:46.638Z,29.42
2018-08-22T12:19:15.161Z,29.55
2018-08-22T12:21:43.764Z,29.63
2018-08-22T12:24:12.260Z,29.81
2018-08-22T12:26:41.180Z,29.92
2018-08-22T12:29:09.858Z,29.10
2018-08-22T12:31:38.464Z,29.93
2018-08-22T12:34:07.193Z,30.02
2018-08-22T12:36:35.884Z,30.03
2018-08-22T12:39:06.216Z,30.03
2018-08-22T12:41:34.703Z,30.03
2018-08-22T12:44:03.233Z,30.10
2018-08-22T12:46:31.777Z,30.18
2018-08-22T12:49:00.251Z,30.41
2018-08-22T12:51:28.764Z,30.74
2018-08-22T12:53:57.275Z,30.65
2018-08-22T12:56:25.856Z,30.62
2018-08-22T12:58:54.339Z,30.49
2018-08-22T13:01:22.812Z,30.45
2018-08-22T13:03:51.315Z,30.46
2018-08-22T13:06:19.781Z,30.54
2018-08-22T13:08:48.272Z,30.47
2018-08-22T13:11:16.808Z,30.39
2018-08-22T13:13:45.290Z,30.59
2018-08-22T13:16:13.770Z,30.84
2018-08-22T13:18:42.250Z,30.54
2018-08-22T13:21:11.301Z,30.67
2018-08-22T13:23:39.795Z,30.57
2018-08-22T13:26:08.337Z,30.48
2018-08-22T13:28:36.818Z,30.79
2018-08-22T13:31:05.657Z,30.94
2018-08-22T13:33:34.159Z,31.11
2018-08-22T13:36:02.653Z,31.07
2018-08-22T13:38:31.148Z,30.79
2018-08-22T13:40:59.629Z,30.73
2018-08-22T13:43:28.183Z,30.76
2018-08-22T13:45:56.634Z,30.99
2018-08-22T13:48:25.117Z,31.09
2018-08-22T13:50:53.677Z,31.25
2018-08-22T13:53:22.137Z,31.05
2018-08-22T13:55:50.656Z,31.11
2018-08-22T13:58:19.113Z,31.31
2018-08-22T14:00:47.642Z,31.38
2018-08-22T14:03:16.164Z,31.46
2018-08-22T14:05:44.629Z,31.54
2018-08-22T14:08:13.155Z,31.72
2018-08-22T14:10:41.604Z,31.69
2018-08-22T14:13:10.235Z,31.72
2018-08-22T14:15:38.761Z,31.70
2018-08-22T14:18:07.217Z,31.82
2018-08-22T14:20:35.706Z,31.70
2018-08-22T14:23:04.273Z,31.62
2018-08-22T14:25:32.742Z,31.50
2018-08-22T14:28:01.230Z,31.72
2018-08-22T14:30:29.811Z,31.74
2018-08-22T14:32:58.292Z,31.64
2018-08-22T14:35:26.766Z,31.51
2018-08-22T14:37:55.331Z,31.38
2018-08-22T14:40:23.797Z,31.33
2018-08-22T14:42:52.292Z,31.43
2018-08-22T14:45:20.798Z,31.62
2018-08-22T14:47:49.288Z,31.70
2018-08-22T14:50:17.768Z,31.47
2018-08-22T14:52:46.336Z,31.82
2018-08-22T14:55:14.870Z,31.76
2018-08-22T14:57:43.364Z,31.53
2018-08-22T15:00:11.866Z,31.57
2018-08-22T15:02:40.713Z,31.47
2018-08-22T15:05:09.177Z,31.31
2018-08-22T15:07:38.194Z,30.72
2018-08-22T15:10:06.748Z,30.28
2018-08-22T15:12:35.250Z,30.00
2018-08-22T15:15:04.201Z,29.91
2018-08-22T15:17:32.720Z,30.00
2018-08-22T15:20:01.205Z,29.94
2018-08-22T15:22:29.685Z,29.89
2018-08-22T15:24:58.138Z,29.96
2018-08-22T15:27:26.740Z,29.89
2018-08-22T15:29:55.268Z,29.84
2018-08-22T15:32:24.155Z,29.84
2018-08-22T15:34:54.085Z,29.74
2018-08-22T15:37:23.028Z,29.64
2018-08-22T15:39:51.541Z,29.58
2018-08-22T15:42:20.150Z,29.64
2018-08-22T15:44:48.776Z,29.66
2018-08-22T15:47:17.411Z,29.69
2018-08-22T15:49:46.703Z,29.76
2018-08-22T15:52:15.408Z,29.86
2018-08-22T15:54:48.356Z,30.01
2018-08-22T15:57:16.867Z,29.89
2018-08-22T15:59:45.396Z,29.79
2018-08-22T16:02:13.937Z,29.65
2018-08-22T16:04:54.460Z,29.45
2018-08-22T16:07:22.923Z,29.31
2018-08-22T16:09:51.447Z,29.22
2018-08-22T16:12:19.942Z,29.13
2018-08-22T16:14:48.474Z,29.11
2018-08-22T16:17:16.969Z,29.19
2018-08-22T16:19:45.454Z,29.16
2018-08-22T16:22:13.981Z,29.15
2018-08-22T16:24:43.125Z,29.03
2018-08-22T16:27:12.261Z,29.02
2018-08-22T16:29:40.829Z,28.96
2018-08-22T16:32:09.305Z,28.94
2018-08-22T16:34:39.067Z,28.81
2018-08-22T16:37:08.539Z,28.75
2018-08-22T16:39:42.569Z,28.67
2018-08-22T16:42:11.595Z,28.60
2018-08-22T16:44:40.644Z,28.52
2018-08-22T16:47:09.176Z,28.50
2018-08-22T16:49:37.769Z,28.41
2018-08-22T16:52:06.332Z,28.38
2018-08-22T16:54:34.849Z,28.35
2018-08-22T16:57:03.381Z,28.36
2018-08-22T16:59:31.948Z,28.36
2018-08-22T17:02:00.487Z,28.27
2018-08-22T17:04:29.949Z,28.25
2018-08-22T17:07:02.936Z,28.15
2018-08-22T17:09:31.488Z,28.11
2018-08-22T17:12:00.121Z,28.05
2018-08-22T17:14:28.669Z,28.03
2018-08-22T17:16:57.225Z,28.02
2018-08-22T17:19:25.741Z,27.96
2018-08-22T17:21:54.197Z,27.93
2018-08-22T17:24:22.693Z,27.89
2018-08-22T17:26:51.176Z,27.88
2018-08-22T17:29:19.708Z,27.84
2018-08-22T17:32:04.549Z,27.81
2018-08-22T17:34:33.535Z,27.85
2018-08-22T17:37:07.009Z,27.84
2018-08-22T17:39:35.544Z,27.76
2018-08-22T17:42:04.065Z,27.68
2018-08-22T17:44:32.544Z,27.54
2018-08-22T17:47:01.067Z,27.43
2018-08-22T17:49:29.584Z,27.24
2018-08-22T17:52:00.971Z,27.08
2018-08-22T17:54:29.490Z,26.90
2018-08-22T17:57:10.528Z,26.71
2018-08-22T17:59:39.444Z,26.54
2018-08-22T18:02:07.976Z,26.44
2018-08-22T18:04:47.737Z,26.24
2018-08-22T18:07:16.912Z,26.06
2018-08-22T18:16:50.423Z,25.82
2018-08-22T18:19:19.453Z,25.66
2018-08-22T18:21:51.137Z,25.49
2018-08-22T18:24:21.312Z,25.31
2018-08-22T18:26:50.646Z,25.15
2018-08-22T18:29:20.858Z,24.94
2018-08-22T18:31:49.565Z,24.76
2018-08-22T18:34:18.020Z,24.60
2018-08-22T18:36:46.521Z,24.49
2018-08-22T18:39:15.716Z,24.37
2018-08-22T18:41:44.282Z,24.29
2018-08-22T18:44:12.828Z,24.24
2018-08-22T18:46:41.342Z,24.19
2018-08-22T18:49:09.846Z,24.10
2018-08-22T18:51:38.361Z,23.93
2018-08-22T18:54:06.844Z,23.87
2018-08-22T18:56:35.356Z,23.73
2018-08-22T18:59:14.960Z,23.54
2018-08-22T19:01:43.509Z,23.42
2018-08-22T19:04:12.059Z,23.19
2018-08-22T19:06:40.541Z,23.36
2018-08-22T19:09:09.030Z,23.18
2018-08-22T19:11:37.515Z,23.14
2018-08-22T19:14:06.069Z,23.14
2018-08-22T19:16:34.629Z,23.01
2018-08-22T19:19:03.088Z,23.01
2018-08-22T19:21:31.531Z,22.79
2018-08-22T19:24:06.074Z,22.80
2018-08-22T19:26:34.760Z,22.73
2018-08-22T19:29:04.942Z,22.68
2018-08-22T19:31:33.451Z,22.61
2018-08-22T19:34:01.935Z,22.60
2018-08-22T19:36:30.436Z,22.40
2018-08-22T19:38:58.904Z,22.27
2018-08-22T19:41:31.836Z,22.27
2018-08-22T19:44:00.341Z,22.31
2018-08-22T19:46:28.849Z,22.30
2018-08-22T19:48:57.362Z,22.25
2018-08-22T19:51:25.851Z,22.21
2018-08-22T19:54:02.928Z,21.99
2018-08-22T19:56:31.696Z,21.86
2018-08-22T19:59:00.625Z,21.79
2018-08-22T20:01:31.863Z,21.69
2018-08-22T20:04:00.362Z,21.66
2018-08-22T20:06:28.896Z,21.55
2018-08-22T20:08:58.336Z,21.43
2018-08-22T20:11:27.286Z,21.36
2018-08-22T20:14:00.084Z,21.32
2018-08-22T20:16:28.588Z,21.22
2018-08-22T20:18:58.421Z,21.14
2018-08-22T20:21:34.564Z,21.18
2018-08-22T20:24:04.243Z,21.13
2018-08-22T20:26:33.203Z,21.15
2018-08-22T20:29:02.667Z,21.26
2018-08-22T20:31:31.367Z,21.27
2018-08-22T20:34:06.555Z,21.23
2018-08-22T20:36:35.117Z,21.17
2018-08-22T20:39:07.455Z,21.06
2018-08-22T20:41:36.566Z,20.99
2018-08-22T20:44:10.959Z,21.06
2018-08-22T20:46:39.679Z,20.73
2018-08-22T20:49:08.196Z,21.14
2018-08-22T20:51:36.721Z,21.20
2018-08-22T20:54:09.749Z,21.23
2018-08-22T20:56:48.039Z,21.35
2018-08-22T20:59:17.759Z,21.36
2018-08-22T21:01:48.926Z,21.43
2018-08-22T21:04:17.444Z,21.36
2018-08-22T21:06:45.917Z,21.30
2018-08-22T21:09:14.491Z,21.29
2018-08-22T21:11:43.488Z,21.29
2018-08-22T21:14:12.200Z,21.30
2018-08-22T21:16:40.705Z,21.27
2018-08-22T21:19:09.177Z,21.29
2018-08-22T21:21:37.660Z,21.29
2018-08-22T21:24:06.224Z,21.35
2018-08-22T21:26:42.420Z,21.33
2018-08-22T21:29:10.934Z,21.38
2018-08-22T21:31:39.419Z,21.35
2018-08-22T21:34:13.809Z,21.31
2018-08-22T21:36:44.844Z,21.36
2018-08-22T21:39:18.672Z,21.31
2018-08-22T21:41:47.789Z,21.31
2018-08-22T21:44:19.485Z,21.28
2018-08-22T21:46:57.668Z,21.28
2018-08-22T21:49:26.442Z,21.22
2018-08-22T21:51:57.918Z,21.16
2018-08-22T21:54:26.668Z,21.08
2018-08-22T21:56:55.156Z,21.05
2018-08-22T21:59:23.645Z,20.99
2018-08-22T22:01:57.280Z,20.87
2018-08-22T22:04:34.328Z,20.71
2018-08-22T22:07:03.748Z,20.61
2018-08-22T22:09:32.328Z,20.72
2018-08-22T22:12:01.657Z,20.56
2018-08-22T22:14:33.298Z,20.43
2018-08-22T22:17:02.911Z,20.37
2018-08-22T22:19:35.641Z,20.38
2018-08-22T22:22:04.920Z,20.33
2018-08-22T22:24:37.660Z,20.31
2018-08-22T22:27:06.320Z,20.27
2018-08-22T22:29:34.823Z,20.25
2018-08-22T22:32:03.313Z,20.25
2018-08-22T22:34:31.773Z,20.18
2018-08-22T22:37:00.290Z,20.19
2018-08-22T22:39:40.797Z,20.17
2018-08-22T22:42:15.128Z,20.10
2018-08-22T22:44:48.356Z,20.07
2018-08-22T22:47:22.196Z,20.05
2018-08-22T22:49:51.361Z,20.06
2018-08-22T22:52:32.979Z,20.07
2018-08-22T22:55:03.631Z,20.02
2018-08-22T22:57:33.279Z,19.99
2018-08-22T23:00:02.665Z,20.00
2018-08-22T23:02:31.853Z,19.94
2018-08-22T23:05:00.896Z,19.89
2018-08-22T23:07:30.479Z,19.84
2018-08-22T23:10:04.223Z,19.73
2018-08-22T23:12:48.043Z,19.64
2018-08-22T23:15:22.755Z,19.56
2018-08-22T23:17:52.980Z,19.47
2018-08-22T23:20:28.224Z,19.39
2018-08-22T23:22:57.036Z,19.38
2018-08-22T23:25:25.948Z,19.32
2018-08-22T23:27:54.429Z,19.21
2018-08-22T23:30:28.227Z,19.15
2018-08-22T23:32:56.746Z,19.16
2018-08-22T23:35:28.656Z,19.12
2018-08-22T23:37:59.171Z,19.08
2018-08-22T23:40:28.874Z,19.08
2018-08-22T23:42:57.389Z,18.98
2018-08-22T23:45:25.900Z,18.96
2018-08-22T23:47:54.388Z,18.92
2018-08-22T23:50:22.994Z,18.89
2018-08-22T23:52:55.707Z,18.79
2018-08-22T23:55:25.567Z,18.72
2018-08-22T23:57:55.460Z,18.66
